sensor_id;sensor_type;location;lat;lon;timestamp;temperature;humidity
19920;DHT22;10122;50.074;19.920;2022-10-22T00:00:08;10.30;99.90
19920;DHT22;10122;50.074;19.920;2022-10-22T00:02:35;10.30;99.90
19920;DHT22;10122;50.074;19.920;2022-10-22T00:05:00;10.30;99.90
19920;DHT22;10122;50.074;19.920;2022-10-22T00:07:26;10.30;99.90
19920;DHT22;10122;50.074;19.920;2022-10-22T00:09:52;10.30;99.90
19920;DHT22;10122;50.074;19.920;2022-10-22T00:12:18;10.30;99.90
19920;DHT22;10122;50.074;19.920;2022-10-22T00:14:44;10.30;99.90
19920;DHT22;10122;50.074;19.920;2022-10-22T00:17:09;10.30;99.90
19920;DHT22;10122;50.074;19.920;2022-10-22T00:19:35;10.30;99.90
19920;DHT22;10122;50.074;19.920;2022-10-22T00:22:01;10.30;99.90
19920;DHT22;10122;50.074;19.920;2022-10-22T00:24:30;10.20;99.90
19920;DHT22;10122;50.074;19.920;2022-10-22T00:26:56;10.30;99.90
19920;DHT22;10122;50.074;19.920;2022-10-22T00:29:22;10.30;99.90
19920;DHT22;10122;50.074;19.920;2022-10-22T00:31:47;10.30;99.90
19920;DHT22;10122;50.074;19.920;2022-10-22T00:34:18;10.30;99.90
19920;DHT22;10122;50.074;19.920;2022-10-22T00:36:46;10.30;99.90
19920;DHT22;10122;50.074;19.920;2022-10-22T00:39:18;10.20;99.90
19920;DHT22;10122;50.074;19.920;2022-10-22T00:41:45;10.20;99.90
19920;DHT22;10122;50.074;19.920;2022-10-22T00:47:15;10.20;99.90
19920;DHT22;10122;50.074;19.920;2022-10-22T00:49:42;10.30;99.90
19920;DHT22;10122;50.074;19.920;2022-10-22T00:52:09;10.30;99.90
19920;DHT22;10122;50.074;19.920;2022-10-22T00:54:36;10.40;99.90
19920;DHT22;10122;50.074;19.920;2022-10-22T00:57:02;10.30;99.90
19920;DHT22;10122;50.074;19.920;2022-10-22T00:59:28;10.40;99.90
19920;DHT22;10122;50.074;19.920;2022-10-22T01:01:54;10.40;99.90
19920;DHT22;10122;50.074;19.920;2022-10-22T01:04:20;10.30;99.90
19920;DHT22;10122;50.074;19.920;2022-10-22T01:06:46;10.30;99.90
19920;DHT22;10122;50.074;19.920;2022-10-22T01:12:18;10.20;99.90
19920;DHT22;10122;50.074;19.920;2022-10-22T01:22:58;10.10;99.90
19920;DHT22;10122;50.074;19.920;2022-10-22T01:25:34;10.10;99.90
19920;DHT22;10122;50.074;19.920;2022-10-22T01:28:18;10.00;99.90
19920;DHT22;10122;50.074;19.920;2022-10-22T01:30:48;10.00;99.90
19920;DHT22;10122;50.074;19.920;2022-10-22T01:33:18;9.90;99.90
19920;DHT22;10122;50.074;19.920;2022-10-22T01:35:46;9.90;99.90
19920;DHT22;10122;50.074;19.920;2022-10-22T01:38:15;9.80;99.90
19920;DHT22;10122;50.074;19.920;2022-10-22T01:40:42;9.80;99.90
19920;DHT22;10122;50.074;19.920;2022-10-22T01:43:09;9.80;99.90
19920;DHT22;10122;50.074;19.920;2022-10-22T01:45:50;9.90;99.90
19920;DHT22;10122;50.074;19.920;2022-10-22T01:59:25;9.60;99.90
19920;DHT22;10122;50.074;19.920;2022-10-22T02:04:43;9.50;99.90
19920;DHT22;10122;50.074;19.920;2022-10-22T02:07:14;9.50;99.90
19920;DHT22;10122;50.074;19.920;2022-10-22T02:09:42;9.50;99.90
19920;DHT22;10122;50.074;19.920;2022-10-22T02:12:09;9.40;99.90
19920;DHT22;10122;50.074;19.920;2022-10-22T02:14:38;9.40;99.90
19920;DHT22;10122;50.074;19.920;2022-10-22T02:17:09;9.40;99.90
19920;DHT22;10122;50.074;19.920;2022-10-22T02:19:53;9.30;99.90
19920;DHT22;10122;50.074;19.920;2022-10-22T02:22:20;9.30;99.90
19920;DHT22;10122;50.074;19.920;2022-10-22T02:24:48;9.20;99.90
19920;DHT22;10122;50.074;19.920;2022-10-22T02:32:35;9.10;99.90
19920;DHT22;10122;50.074;19.920;2022-10-22T02:35:05;9.10;99.90
19920;DHT22;10122;50.074;19.920;2022-10-22T02:37:31;9.10;99.90
19920;DHT22;10122;50.074;19.920;2022-10-22T02:39:57;9.10;99.90
19920;DHT22;10122;50.074;19.920;2022-10-22T02:42:27;9.10;99.90
19920;DHT22;10122;50.074;19.920;2022-10-22T02:44:53;9.00;99.90
19920;DHT22;10122;50.074;19.920;2022-10-22T02:47:19;9.00;99.90
19920;DHT22;10122;50.074;19.920;2022-10-22T02:49:45;9.00;99.90
19920;DHT22;10122;50.074;19.920;2022-10-22T02:52:10;9.00;99.90
19920;DHT22;10122;50.074;19.920;2022-10-22T02:54:36;9.00;99.90
19920;DHT22;10122;50.074;19.920;2022-10-22T02:57:02;9.00;99.90
19920;DHT22;10122;50.074;19.920;2022-10-22T02:59:27;8.90;99.90
19920;DHT22;10122;50.074;19.920;2022-10-22T03:01:53;8.90;99.90
19920;DHT22;10122;50.074;19.920;2022-10-22T03:04:19;8.90;99.90
19920;DHT22;10122;50.074;19.920;2022-10-22T03:06:44;8.90;99.90
19920;DHT22;10122;50.074;19.920;2022-10-22T03:09:13;8.80;99.90
19920;DHT22;10122;50.074;19.920;2022-10-22T03:11:39;8.80;99.90
19920;DHT22;10122;50.074;19.920;2022-10-22T03:14:04;8.80;99.90
19920;DHT22;10122;50.074;19.920;2022-10-22T03:16:30;8.80;99.90
19920;DHT22;10122;50.074;19.920;2022-10-22T03:18:56;8.80;99.90
19920;DHT22;10122;50.074;19.920;2022-10-22T03:21:43;8.70;99.90
19920;DHT22;10122;50.074;19.920;2022-10-22T03:24:15;8.70;99.90
19920;DHT22;10122;50.074;19.920;2022-10-22T03:26:42;8.70;99.90
19920;DHT22;10122;50.074;19.920;2022-10-22T03:29:11;8.60;99.90
19920;DHT22;10122;50.074;19.920;2022-10-22T03:31:37;8.60;99.90
19920;DHT22;10122;50.074;19.920;2022-10-22T03:34:03;8.60;99.90
19920;DHT22;10122;50.074;19.920;2022-10-22T03:36:28;8.60;99.90
19920;DHT22;10122;50.074;19.920;2022-10-22T03:38:55;8.60;99.90
19920;DHT22;10122;50.074;19.920;2022-10-22T03:41:20;8.70;99.90
19920;DHT22;10122;50.074;19.920;2022-10-22T03:43:46;8.60;99.90
19920;DHT22;10122;50.074;19.920;2022-10-22T03:46:16;8.60;99.90
19920;DHT22;10122;50.074;19.920;2022-10-22T03:48:41;8.50;99.90
19920;DHT22;10122;50.074;19.920;2022-10-22T03:51:07;8.50;99.90
19920;DHT22;10122;50.074;19.920;2022-10-22T03:53:33;8.60;99.90
19920;DHT22;10122;50.074;19.920;2022-10-22T03:55:58;8.60;99.90
19920;DHT22;10122;50.074;19.920;2022-10-22T03:58:24;8.50;99.90
19920;DHT22;10122;50.074;19.920;2022-10-22T04:00:49;8.50;99.90
19920;DHT22;10122;50.074;19.920;2022-10-22T04:03:15;8.40;99.90
19920;DHT22;10122;50.074;19.920;2022-10-22T04:05:41;8.30;99.90
19920;DHT22;10122;50.074;19.920;2022-10-22T04:08:06;8.20;99.90
19920;DHT22;10122;50.074;19.920;2022-10-22T04:10:32;8.20;99.90
19920;DHT22;10122;50.074;19.920;2022-10-22T04:12:58;8.10;99.90
19920;DHT22;10122;50.074;19.920;2022-10-22T04:15:24;8.00;99.90
19920;DHT22;10122;50.074;19.920;2022-10-22T04:17:52;8.00;99.90
19920;DHT22;10122;50.074;19.920;2022-10-22T04:20:18;8.00;99.90
19920;DHT22;10122;50.074;19.920;2022-10-22T04:22:44;8.00;99.90
19920;DHT22;10122;50.074;19.920;2022-10-22T04:25:10;8.00;99.90
19920;DHT22;10122;50.074;19.920;2022-10-22T04:27:35;7.90;99.90
19920;DHT22;10122;50.074;19.920;2022-10-22T04:30:03;8.00;99.90
19920;DHT22;10122;50.074;19.920;2022-10-22T04:32:29;7.90;99.90
19920;DHT22;10122;50.074;19.920;2022-10-22T04:34:54;7.90;99.90
19920;DHT22;10122;50.074;19.920;2022-10-22T04:37:20;7.90;99.90
19920;DHT22;10122;50.074;19.920;2022-10-22T04:39:46;7.90;99.90
19920;DHT22;10122;50.074;19.920;2022-10-22T04:42:12;7.90;99.90
19920;DHT22;10122;50.074;19.920;2022-10-22T04:44:37;7.90;99.90
19920;DHT22;10122;50.074;19.920;2022-10-22T04:47:03;7.90;99.90
19920;DHT22;10122;50.074;19.920;2022-10-22T04:49:29;7.90;99.90
19920;DHT22;10122;50.074;19.920;2022-10-22T04:51:54;7.90;99.90
19920;DHT22;10122;50.074;19.920;2022-10-22T04:54:20;7.90;99.90
19920;DHT22;10122;50.074;19.920;2022-10-22T04:56:46;7.90;99.90
19920;DHT22;10122;50.074;19.920;2022-10-22T04:59:12;7.90;99.90
19920;DHT22;10122;50.074;19.920;2022-10-22T05:01:40;7.90;99.90
19920;DHT22;10122;50.074;19.920;2022-10-22T05:04:08;7.90;99.90
19920;DHT22;10122;50.074;19.920;2022-10-22T05:06:35;7.90;99.90
19920;DHT22;10122;50.074;19.920;2022-10-22T05:09:04;8.00;99.90
19920;DHT22;10122;50.074;19.920;2022-10-22T05:11:33;8.00;99.90
19920;DHT22;10122;50.074;19.920;2022-10-22T05:14:02;8.00;99.90
19920;DHT22;10122;50.074;19.920;2022-10-22T05:16:28;8.00;99.90
19920;DHT22;10122;50.074;19.920;2022-10-22T05:18:55;8.00;99.90
19920;DHT22;10122;50.074;19.920;2022-10-22T05:21:20;8.00;99.90
19920;DHT22;10122;50.074;19.920;2022-10-22T05:23:48;8.00;99.90
19920;DHT22;10122;50.074;19.920;2022-10-22T05:26:17;7.90;99.90
19920;DHT22;10122;50.074;19.920;2022-10-22T05:28:43;7.90;99.90
19920;DHT22;10122;50.074;19.920;2022-10-22T05:31:11;8.00;99.90
19920;DHT22;10122;50.074;19.920;2022-10-22T05:33:37;8.00;99.90
19920;DHT22;10122;50.074;19.920;2022-10-22T05:36:04;8.10;99.90
19920;DHT22;10122;50.074;19.920;2022-10-22T05:38:34;8.20;99.90
19920;DHT22;10122;50.074;19.920;2022-10-22T05:41:08;8.20;99.90
19920;DHT22;10122;50.074;19.920;2022-10-22T05:43:35;8.30;99.90
19920;DHT22;10122;50.074;19.920;2022-10-22T05:46:07;8.40;99.90
19920;DHT22;10122;50.074;19.920;2022-10-22T05:48:32;8.40;99.90
19920;DHT22;10122;50.074;19.920;2022-10-22T05:51:03;8.40;99.90
19920;DHT22;10122;50.074;19.920;2022-10-22T05:53:31;8.40;99.90
19920;DHT22;10122;50.074;19.920;2022-10-22T05:55:59;8.40;99.90
19920;DHT22;10122;50.074;19.920;2022-10-22T05:58:25;8.50;99.90
19920;DHT22;10122;50.074;19.920;2022-10-22T06:00:51;8.70;99.90
19920;DHT22;10122;50.074;19.920;2022-10-22T06:03:17;8.90;99.90
19920;DHT22;10122;50.074;19.920;2022-10-22T06:05:42;9.00;99.90
19920;DHT22;10122;50.074;19.920;2022-10-22T06:08:10;9.10;99.90
19920;DHT22;10122;50.074;19.920;2022-10-22T06:10:40;9.20;99.90
19920;DHT22;10122;50.074;19.920;2022-10-22T06:13:07;9.20;99.90
19920;DHT22;10122;50.074;19.920;2022-10-22T06:15:33;9.10;99.90
19920;DHT22;10122;50.074;19.920;2022-10-22T06:17:58;9.10;99.90
19920;DHT22;10122;50.074;19.920;2022-10-22T06:20:25;9.00;99.90
19920;DHT22;10122;50.074;19.920;2022-10-22T06:22:50;9.10;99.90
19920;DHT22;10122;50.074;19.920;2022-10-22T06:25:16;9.00;99.90
19920;DHT22;10122;50.074;19.920;2022-10-22T06:27:42;9.00;99.90
19920;DHT22;10122;50.074;19.920;2022-10-22T06:30:08;8.90;99.90
19920;DHT22;10122;50.074;19.920;2022-10-22T06:32:34;8.90;99.90
19920;DHT22;10122;50.074;19.920;2022-10-22T06:35:00;8.90;99.90
19920;DHT22;10122;50.074;19.920;2022-10-22T06:37:25;8.90;99.90
19920;DHT22;10122;50.074;19.920;2022-10-22T06:39:51;8.90;99.90
19920;DHT22;10122;50.074;19.920;2022-10-22T06:42:17;9.00;99.90
19920;DHT22;10122;50.074;19.920;2022-10-22T06:44:42;9.00;99.90
19920;DHT22;10122;50.074;19.920;2022-10-22T06:47:08;9.00;99.90
19920;DHT22;10122;50.074;19.920;2022-10-22T06:49:33;9.10;99.90
19920;DHT22;10122;50.074;19.920;2022-10-22T06:51:59;9.10;99.90
19920;DHT22;10122;50.074;19.920;2022-10-22T06:54:25;9.20;99.90
19920;DHT22;10122;50.074;19.920;2022-10-22T06:56:50;9.30;99.90
19920;DHT22;10122;50.074;19.920;2022-10-22T06:59:16;9.40;99.90
19920;DHT22;10122;50.074;19.920;2022-10-22T07:01:42;9.60;99.90
19920;DHT22;10122;50.074;19.920;2022-10-22T07:04:09;9.80;99.90
19920;DHT22;10122;50.074;19.920;2022-10-22T07:06:35;10.00;99.90
19920;DHT22;10122;50.074;19.920;2022-10-22T07:09:01;10.20;99.90
19920;DHT22;10122;50.074;19.920;2022-10-22T07:11:29;10.60;99.90
19920;DHT22;10122;50.074;19.920;2022-10-22T07:13:57;11.00;99.90
19920;DHT22;10122;50.074;19.920;2022-10-22T07:16:23;11.30;99.90
19920;DHT22;10122;50.074;19.920;2022-10-22T07:18:50;11.50;99.90
19920;DHT22;10122;50.074;19.920;2022-10-22T07:21:18;11.40;99.90
19920;DHT22;10122;50.074;19.920;2022-10-22T07:23:45;11.40;99.90
19920;DHT22;10122;50.074;19.920;2022-10-22T07:26:13;11.30;99.90
19920;DHT22;10122;50.074;19.920;2022-10-22T07:28:39;11.30;99.90
19920;DHT22;10122;50.074;19.920;2022-10-22T07:31:10;11.30;99.90
19920;DHT22;10122;50.074;19.920;2022-10-22T07:33:36;11.30;99.90
19920;DHT22;10122;50.074;19.920;2022-10-22T07:36:05;11.30;99.90
19920;DHT22;10122;50.074;19.920;2022-10-22T07:38:31;11.40;99.90
19920;DHT22;10122;50.074;19.920;2022-10-22T07:40:57;11.40;99.90
19920;DHT22;10122;50.074;19.920;2022-10-22T07:43:24;11.50;99.90
19920;DHT22;10122;50.074;19.920;2022-10-22T07:45:50;11.60;99.90
19920;DHT22;10122;50.074;19.920;2022-10-22T07:48:16;11.60;99.90
19920;DHT22;10122;50.074;19.920;2022-10-22T07:50:42;11.60;99.90
19920;DHT22;10122;50.074;19.920;2022-10-22T07:53:07;11.60;99.90
19920;DHT22;10122;50.074;19.920;2022-10-22T07:55:33;11.50;99.90
19920;DHT22;10122;50.074;19.920;2022-10-22T07:57:59;11.40;99.90
19920;DHT22;10122;50.074;19.920;2022-10-22T08:00:25;11.40;99.90
19920;DHT22;10122;50.074;19.920;2022-10-22T08:02:51;11.40;99.90
19920;DHT22;10122;50.074;19.920;2022-10-22T08:05:16;11.40;99.90
19920;DHT22;10122;50.074;19.920;2022-10-22T08:07:42;11.40;99.90
19920;DHT22;10122;50.074;19.920;2022-10-22T08:10:09;11.50;99.90
19920;DHT22;10122;50.074;19.920;2022-10-22T08:12:35;11.50;99.90
19920;DHT22;10122;50.074;19.920;2022-10-22T08:15:01;11.60;99.90
19920;DHT22;10122;50.074;19.920;2022-10-22T08:17:27;11.70;99.90
19920;DHT22;10122;50.074;19.920;2022-10-22T08:19:53;11.70;99.90
19920;DHT22;10122;50.074;19.920;2022-10-22T08:22:19;11.80;99.90
19920;DHT22;10122;50.074;19.920;2022-10-22T08:24:44;11.90;99.90
19920;DHT22;10122;50.074;19.920;2022-10-22T08:27:11;12.00;99.90
19920;DHT22;10122;50.074;19.920;2022-10-22T08:29:37;12.10;99.90
19920;DHT22;10122;50.074;19.920;2022-10-22T08:32:02;12.10;99.90
19920;DHT22;10122;50.074;19.920;2022-10-22T08:34:29;12.20;99.90
19920;DHT22;10122;50.074;19.920;2022-10-22T08:36:54;12.20;99.90
19920;DHT22;10122;50.074;19.920;2022-10-22T08:39:21;12.30;99.90
19920;DHT22;10122;50.074;19.920;2022-10-22T08:46:59;12.60;99.90
19920;DHT22;10122;50.074;19.920;2022-10-22T08:49:31;12.70;99.90
19920;DHT22;10122;50.074;19.920;2022-10-22T08:51:58;12.70;99.90
19920;DHT22;10122;50.074;19.920;2022-10-22T09:00:17;12.50;99.90
19920;DHT22;10122;50.074;19.920;2022-10-22T09:05:32;12.40;99.90
19920;DHT22;10122;50.074;19.920;2022-10-22T09:07:57;12.40;99.90
19920;DHT22;10122;50.074;19.920;2022-10-22T09:10:31;12.40;99.90
19920;DHT22;10122;50.074;19.920;2022-10-22T09:12:58;12.30;99.90
19920;DHT22;10122;50.074;19.920;2022-10-22T09:15:24;12.40;99.90
19920;DHT22;10122;50.074;19.920;2022-10-22T09:20:47;12.40;99.90
19920;DHT22;10122;50.074;19.920;2022-10-22T09:23:35;12.50;99.90
19920;DHT22;10122;50.074;19.920;2022-10-22T09:26:11;12.50;99.90
19920;DHT22;10122;50.074;19.920;2022-10-22T09:28:38;12.60;99.90
19920;DHT22;10122;50.074;19.920;2022-10-22T09:31:12;12.70;99.90
19920;DHT22;10122;50.074;19.920;2022-10-22T09:33:41;12.80;99.90
19920;DHT22;10122;50.074;19.920;2022-10-22T09:36:07;12.90;99.90
19920;DHT22;10122;50.074;19.920;2022-10-22T09:38:46;13.00;99.90
19920;DHT22;10122;50.074;19.920;2022-10-22T09:41:12;13.00;99.90
19920;DHT22;10122;50.074;19.920;2022-10-22T09:43:38;13.10;99.90
19920;DHT22;10122;50.074;19.920;2022-10-22T09:46:06;13.10;99.90
19920;DHT22;10122;50.074;19.920;2022-10-22T09:48:40;13.10;99.90
19920;DHT22;10122;50.074;19.920;2022-10-22T09:51:26;13.10;99.90
19920;DHT22;10122;50.074;19.920;2022-10-22T09:54:10;13.00;99.90
19920;DHT22;10122;50.074;19.920;2022-10-22T09:56:40;13.00;99.90
19920;DHT22;10122;50.074;19.920;2022-10-22T09:59:17;12.90;99.90
19920;DHT22;10122;50.074;19.920;2022-10-22T10:01:43;12.90;99.90
19920;DHT22;10122;50.074;19.920;2022-10-22T10:04:12;12.90;99.90
19920;DHT22;10122;50.074;19.920;2022-10-22T10:06:40;12.90;99.90
19920;DHT22;10122;50.074;19.920;2022-10-22T10:09:25;12.90;99.90
19920;DHT22;10122;50.074;19.920;2022-10-22T10:17:35;12.90;99.90
19920;DHT22;10122;50.074;19.920;2022-10-22T10:27:47;12.90;99.90
19920;DHT22;10122;50.074;19.920;2022-10-22T10:30:15;12.90;99.90
19920;DHT22;10122;50.074;19.920;2022-10-22T10:36:17;12.90;99.90
19920;DHT22;10122;50.074;19.920;2022-10-22T10:39:05;12.90;99.90
19920;DHT22;10122;50.074;19.920;2022-10-22T10:49:29;12.90;99.90
19920;DHT22;10122;50.074;19.920;2022-10-22T11:00:09;12.90;99.90
19920;DHT22;10122;50.074;19.920;2022-10-22T11:03:28;12.90;99.90
19920;DHT22;10122;50.074;19.920;2022-10-22T11:08:37;12.90;99.90
19920;DHT22;10122;50.074;19.920;2022-10-22T11:13:59;12.90;99.90
19920;DHT22;10122;50.074;19.920;2022-10-22T11:16:48;12.90;99.90
19920;DHT22;10122;50.074;19.920;2022-10-22T11:19:26;12.80;99.90
19920;DHT22;10122;50.074;19.920;2022-10-22T11:22:04;12.90;99.90
19920;DHT22;10122;50.074;19.920;2022-10-22T11:28:04;12.90;99.90
19920;DHT22;10122;50.074;19.920;2022-10-22T11:30:16;12.90;99.90
19920;DHT22;10122;50.074;19.920;2022-10-22T11:32:43;13.00;99.90
19920;DHT22;10122;50.074;19.920;2022-10-22T11:35:29;12.90;99.90
19920;DHT22;10122;50.074;19.920;2022-10-22T11:37:56;13.00;99.90
19920;DHT22;10122;50.074;19.920;2022-10-22T11:42:57;13.00;99.90
19920;DHT22;10122;50.074;19.920;2022-10-22T11:53:20;13.00;99.90
19920;DHT22;10122;50.074;19.920;2022-10-22T11:55:56;13.00;99.90
19920;DHT22;10122;50.074;19.920;2022-10-22T11:58:25;13.10;99.90
19920;DHT22;10122;50.074;19.920;2022-10-22T12:00:51;13.10;99.90
19920;DHT22;10122;50.074;19.920;2022-10-22T12:06:18;13.10;99.90
19920;DHT22;10122;50.074;19.920;2022-10-22T12:11:40;13.20;99.90
19920;DHT22;10122;50.074;19.920;2022-10-22T12:14:25;13.20;99.90
19920;DHT22;10122;50.074;19.920;2022-10-22T12:16:58;13.10;99.90
19920;DHT22;10122;50.074;19.920;2022-10-22T12:19:40;13.10;99.90
19920;DHT22;10122;50.074;19.920;2022-10-22T12:22:26;13.10;99.90
19920;DHT22;10122;50.074;19.920;2022-10-22T12:24:54;13.00;99.90
19920;DHT22;10122;50.074;19.920;2022-10-22T12:27:27;13.00;99.90
19920;DHT22;10122;50.074;19.920;2022-10-22T12:29:59;13.00;99.90
19920;DHT22;10122;50.074;19.920;2022-10-22T12:32:33;12.90;99.90
19920;DHT22;10122;50.074;19.920;2022-10-22T12:35:05;12.90;99.90
19920;DHT22;10122;50.074;19.920;2022-10-22T12:37:34;12.90;99.90
19920;DHT22;10122;50.074;19.920;2022-10-22T12:40:00;12.80;99.90
19920;DHT22;10122;50.074;19.920;2022-10-22T12:42:26;12.80;99.90
19920;DHT22;10122;50.074;19.920;2022-10-22T12:44:55;12.80;99.90
19920;DHT22;10122;50.074;19.920;2022-10-22T12:47:21;12.70;99.90
19920;DHT22;10122;50.074;19.920;2022-10-22T12:49:48;12.70;99.90
19920;DHT22;10122;50.074;19.920;2022-10-22T12:52:18;12.70;99.90
19920;DHT22;10122;50.074;19.920;2022-10-22T12:54:47;12.70;99.90
19920;DHT22;10122;50.074;19.920;2022-10-22T12:57:15;12.70;99.90
19920;DHT22;10122;50.074;19.920;2022-10-22T12:59:45;12.80;99.90
19920;DHT22;10122;50.074;19.920;2022-10-22T13:02:23;12.70;99.90
19920;DHT22;10122;50.074;19.920;2022-10-22T13:07:42;12.70;99.90
19920;DHT22;10122;50.074;19.920;2022-10-22T13:10:32;12.70;99.90
19920;DHT22;10122;50.074;19.920;2022-10-22T13:12:58;12.80;99.90
19920;DHT22;10122;50.074;19.920;2022-10-22T13:18:01;12.70;99.90
19920;DHT22;10122;50.074;19.920;2022-10-22T13:20:28;12.70;99.90
19920;DHT22;10122;50.074;19.920;2022-10-22T13:23:01;12.80;99.90
19920;DHT22;10122;50.074;19.920;2022-10-22T13:25:36;12.70;99.90
19920;DHT22;10122;50.074;19.920;2022-10-22T13:28:14;12.70;99.90
19920;DHT22;10122;50.074;19.920;2022-10-22T13:30:51;12.70;99.90
19920;DHT22;10122;50.074;19.920;2022-10-22T13:33:26;12.70;99.90
19920;DHT22;10122;50.074;19.920;2022-10-22T13:35:54;12.70;99.90
19920;DHT22;10122;50.074;19.920;2022-10-22T13:38:23;12.70;99.90
19920;DHT22;10122;50.074;19.920;2022-10-22T13:40:49;12.70;99.90
19920;DHT22;10122;50.074;19.920;2022-10-22T13:43:15;12.70;99.90
19920;DHT22;10122;50.074;19.920;2022-10-22T13:45:41;12.60;99.90
19920;DHT22;10122;50.074;19.920;2022-10-22T13:48:16;12.60;99.90
19920;DHT22;10122;50.074;19.920;2022-10-22T13:50:43;12.60;99.90
19920;DHT22;10122;50.074;19.920;2022-10-22T13:53:15;12.60;99.90
19920;DHT22;10122;50.074;19.920;2022-10-22T13:55:43;12.60;99.90
19920;DHT22;10122;50.074;19.920;2022-10-22T13:58:11;12.50;99.90
19920;DHT22;10122;50.074;19.920;2022-10-22T14:00:40;12.50;99.90
19920;DHT22;10122;50.074;19.920;2022-10-22T14:03:09;12.50;99.90
19920;DHT22;10122;50.074;19.920;2022-10-22T14:05:35;12.50;99.90
19920;DHT22;10122;50.074;19.920;2022-10-22T14:08:01;12.50;99.90
19920;DHT22;10122;50.074;19.920;2022-10-22T14:10:27;12.50;99.90
19920;DHT22;10122;50.074;19.920;2022-10-22T14:12:53;12.50;99.90
19920;DHT22;10122;50.074;19.920;2022-10-22T14:15:21;12.60;99.90
19920;DHT22;10122;50.074;19.920;2022-10-22T14:17:55;12.60;99.90
19920;DHT22;10122;50.074;19.920;2022-10-22T14:20:24;12.60;99.90
19920;DHT22;10122;50.074;19.920;2022-10-22T14:22:51;12.60;99.90
19920;DHT22;10122;50.074;19.920;2022-10-22T14:25:21;12.60;99.90
19920;DHT22;10122;50.074;19.920;2022-10-22T14:27:47;12.60;99.90
19920;DHT22;10122;50.074;19.920;2022-10-22T14:30:23;12.60;99.90
19920;DHT22;10122;50.074;19.920;2022-10-22T14:32:49;12.50;99.90
19920;DHT22;10122;50.074;19.920;2022-10-22T14:35:20;12.50;99.90
19920;DHT22;10122;50.074;19.920;2022-10-22T14:37:46;12.50;99.90
19920;DHT22;10122;50.074;19.920;2022-10-22T14:40:15;12.40;99.90
19920;DHT22;10122;50.074;19.920;2022-10-22T14:42:44;12.40;99.90
19920;DHT22;10122;50.074;19.920;2022-10-22T14:45:20;12.40;99.90
19920;DHT22;10122;50.074;19.920;2022-10-22T14:47:46;12.40;99.90
19920;DHT22;10122;50.074;19.920;2022-10-22T14:50:12;12.40;99.90
19920;DHT22;10122;50.074;19.920;2022-10-22T14:52:39;12.40;99.90
19920;DHT22;10122;50.074;19.920;2022-10-22T14:55:05;12.40;99.90
19920;DHT22;10122;50.074;19.920;2022-10-22T14:57:31;12.30;99.90
19920;DHT22;10122;50.074;19.920;2022-10-22T14:59:57;12.30;99.90
19920;DHT22;10122;50.074;19.920;2022-10-22T15:02:22;12.30;99.90
19920;DHT22;10122;50.074;19.920;2022-10-22T15:04:48;12.30;99.90
19920;DHT22;10122;50.074;19.920;2022-10-22T15:07:14;12.30;99.90
19920;DHT22;10122;50.074;19.920;2022-10-22T15:09:40;12.30;99.90
19920;DHT22;10122;50.074;19.920;2022-10-22T15:12:06;12.30;99.90
19920;DHT22;10122;50.074;19.920;2022-10-22T15:14:31;12.20;99.90
19920;DHT22;10122;50.074;19.920;2022-10-22T15:16:58;12.20;99.90
19920;DHT22;10122;50.074;19.920;2022-10-22T15:19:24;12.20;99.90
19920;DHT22;10122;50.074;19.920;2022-10-22T15:21:50;12.10;99.90
19920;DHT22;10122;50.074;19.920;2022-10-22T15:24:16;12.10;99.90
19920;DHT22;10122;50.074;19.920;2022-10-22T15:26:41;12.10;99.90
19920;DHT22;10122;50.074;19.920;2022-10-22T15:29:07;12.10;99.90
19920;DHT22;10122;50.074;19.920;2022-10-22T15:31:46;12.10;99.90
19920;DHT22;10122;50.074;19.920;2022-10-22T15:34:16;12.10;99.90
19920;DHT22;10122;50.074;19.920;2022-10-22T15:36:42;12.10;99.90
19920;DHT22;10122;50.074;19.920;2022-10-22T15:39:08;12.10;99.90
19920;DHT22;10122;50.074;19.920;2022-10-22T15:41:35;12.10;99.90
19920;DHT22;10122;50.074;19.920;2022-10-22T15:44:01;12.10;99.90
19920;DHT22;10122;50.074;19.920;2022-10-22T15:46:27;12.10;99.90
19920;DHT22;10122;50.074;19.920;2022-10-22T15:48:53;12.10;99.90
19920;DHT22;10122;50.074;19.920;2022-10-22T15:51:19;12.10;99.90
19920;DHT22;10122;50.074;19.920;2022-10-22T15:53:56;12.10;99.90
19920;DHT22;10122;50.074;19.920;2022-10-22T15:56:24;12.00;99.90
19920;DHT22;10122;50.074;19.920;2022-10-22T15:58:54;12.00;99.90
19920;DHT22;10122;50.074;19.920;2022-10-22T16:01:20;12.00;99.90
19920;DHT22;10122;50.074;19.920;2022-10-22T16:03:46;12.00;99.90
19920;DHT22;10122;50.074;19.920;2022-10-22T16:06:13;12.00;99.90
19920;DHT22;10122;50.074;19.920;2022-10-22T16:08:39;12.00;99.90
19920;DHT22;10122;50.074;19.920;2022-10-22T16:11:05;12.10;99.90
19920;DHT22;10122;50.074;19.920;2022-10-22T16:13:30;12.00;99.90
19920;DHT22;10122;50.074;19.920;2022-10-22T16:15:56;12.00;99.90
19920;DHT22;10122;50.074;19.920;2022-10-22T16:18:22;12.00;99.90
19920;DHT22;10122;50.074;19.920;2022-10-22T16:20:48;12.00;99.90
19920;DHT22;10122;50.074;19.920;2022-10-22T16:23:13;12.00;99.90
19920;DHT22;10122;50.074;19.920;2022-10-22T16:25:43;12.00;99.90
19920;DHT22;10122;50.074;19.920;2022-10-22T16:28:10;12.00;99.90
19920;DHT22;10122;50.074;19.920;2022-10-22T16:30:37;12.00;99.90
19920;DHT22;10122;50.074;19.920;2022-10-22T16:33:04;12.00;99.90
19920;DHT22;10122;50.074;19.920;2022-10-22T16:35:31;12.00;99.90
19920;DHT22;10122;50.074;19.920;2022-10-22T16:37:57;12.10;99.90
19920;DHT22;10122;50.074;19.920;2022-10-22T16:40:23;12.00;99.90
19920;DHT22;10122;50.074;19.920;2022-10-22T16:42:48;12.00;99.90
19920;DHT22;10122;50.074;19.920;2022-10-22T16:45:15;12.00;99.90
19920;DHT22;10122;50.074;19.920;2022-10-22T16:47:41;12.00;99.90
19920;DHT22;10122;50.074;19.920;2022-10-22T16:50:08;12.00;99.90
19920;DHT22;10122;50.074;19.920;2022-10-22T16:52:34;12.00;99.90
19920;DHT22;10122;50.074;19.920;2022-10-22T16:55:00;12.00;99.90
19920;DHT22;10122;50.074;19.920;2022-10-22T16:57:27;12.00;99.90
19920;DHT22;10122;50.074;19.920;2022-10-22T16:59:53;12.00;99.90
19920;DHT22;10122;50.074;19.920;2022-10-22T17:02:19;12.00;99.90
19920;DHT22;10122;50.074;19.920;2022-10-22T17:04:45;12.10;99.90
19920;DHT22;10122;50.074;19.920;2022-10-22T17:07:10;12.10;99.90
19920;DHT22;10122;50.074;19.920;2022-10-22T17:09:36;12.10;99.90
19920;DHT22;10122;50.074;19.920;2022-10-22T17:12:02;12.10;99.90
19920;DHT22;10122;50.074;19.920;2022-10-22T17:14:27;12.10;99.90
19920;DHT22;10122;50.074;19.920;2022-10-22T17:16:53;12.10;99.90
19920;DHT22;10122;50.074;19.920;2022-10-22T17:19:20;12.10;99.90